Time;durP1;ratioP1;P1;durP2;ratioP2;P2;SDS_P1;SDS_P2;PMS_P1;PMS_P2;Temp;Humidity;BMP_temperature;BMP_pressure;BME280_temperature;BME280_humidity;BME280_pressure;Samples;Min_cycle;Max_cycle;Signal;HPM_P1;HPM_P2
2021/01/17 00:00:39;;;;;;;86.32;50.53;;;;;;;5.15;65.52;101500.91;4939404;28;20061;-85
2021/01/17 00:03:05;;;;;;;85.32;52.70;;;;;;;5.24;65.45;101505.44;4962326;28;20211;-86
2021/01/17 00:05:31;;;;;;;87.70;54.10;;;;;;;5.39;64.77;101503.09;4961817;28;20059;-83
2021/01/17 00:07:58;;;;;;;79.65;49.15;;;;;;;5.35;64.87;101497.16;4960141;28;20038;-86
2021/01/17 00:10:26;;;;;;;88.60;59.63;;;;;;;5.41;64.74;101502.97;4940060;28;20461;-84
2021/01/17 00:12:53;;;;;;;83.30;54.65;;;;;;;5.34;65.06;101498.16;4959200;28;20102;-84
2021/01/17 00:15:19;;;;;;;81.90;55.60;;;;;;;5.36;64.96;101500.69;4942155;28;20093;-84
2021/01/17 00:17:45;;;;;;;86.03;58.13;;;;;;;5.49;64.39;101503.94;4957207;28;20035;-84
2021/01/17 00:20:16;;;;;;;81.68;54.08;;;;;;;5.44;64.71;101489.19;4961849;28;20567;-84
2021/01/17 00:22:43;;;;;;;61.95;40.05;;;;;;;5.52;64.60;101487.47;4955187;28;20027;-83
2021/01/17 00:25:12;;;;;;;81.32;51.45;;;;;;;5.52;64.65;101486.63;4961018;28;20098;-85
2021/01/17 00:27:37;;;;;;;81.70;53.22;;;;;;;5.33;64.78;101480.28;4959604;28;20050;-84
2021/01/17 00:30:06;;;;;;;77.88;47.67;;;;;;;5.49;64.51;101476.13;4941101;28;20035;-83
2021/01/17 00:32:31;;;;;;;73.05;52.30;;;;;;;5.59;64.51;101473.38;4942543;28;20555;-84
2021/01/17 00:34:56;;;;;;;73.28;47.13;;;;;;;5.58;64.38;101472.53;4939199;28;20038;-83
2021/01/17 00:37:22;;;;;;;80.43;50.88;;;;;;;5.62;64.60;101473.09;4949448;28;20035;-83
2021/01/17 00:39:47;;;;;;;75.28;49.42;;;;;;;5.58;63.96;101469.84;4962529;28;20165;-82
2021/01/17 00:42:15;;;;;;;78.13;49.13;;;;;;;5.54;64.73;101473.81;4931963;28;20449;-85
2021/01/17 00:44:41;;;;;;;71.18;46.72;;;;;;;5.51;64.75;101471.41;4953007;28;20038;-85
2021/01/17 00:47:09;;;;;;;76.55;48.65;;;;;;;5.53;64.63;101467.59;4962066;28;20385;-85
2021/01/17 00:49:35;;;;;;;74.03;47.97;;;;;;;5.36;65.19;101463.81;4950687;28;20046;-84
2021/01/17 00:52:01;;;;;;;80.55;53.53;;;;;;;5.42;65.24;101458.81;4968652;28;20405;-84
2021/01/17 00:54:26;;;;;;;70.50;48.95;;;;;;;5.51;64.86;101460.63;4950789;28;20034;-83
2021/01/17 00:56:52;;;;;;;74.53;44.70;;;;;;;5.64;64.69;101462.97;4967824;28;20566;-84
2021/01/17 00:59:17;;;;;;;77.63;52.97;;;;;;;5.54;64.65;101454.94;4971589;28;20027;-84
2021/01/17 01:01:45;;;;;;;72.53;45.67;;;;;;;5.65;64.36;101451.19;4953338;28;20485;-84
2021/01/17 01:04:13;;;;;;;72.88;47.33;;;;;;;5.71;64.53;101454.16;4968509;28;20031;-83
2021/01/17 01:06:38;;;;;;;73.78;48.85;;;;;;;5.65;64.53;101460.13;4962070;28;20092;-85
2021/01/17 01:09:09;;;;;;;73.85;40.72;;;;;;;5.71;64.33;101454.16;4970158;28;20035;-83
2021/01/17 01:11:34;;;;;;;74.20;49.60;;;;;;;5.52;65.02;101455.09;4965570;28;20043;-83
2021/01/17 01:14:00;;;;;;;73.40;46.20;;;;;;;5.76;64.45;101455.56;4950303;28;20046;-84
2021/01/17 01:16:25;;;;;;;70.20;49.80;;;;;;;5.78;64.09;101454.41;4954288;28;20029;-83
2021/01/17 01:18:51;;;;;;;68.55;45.58;;;;;;;5.67;64.71;101454.59;4949493;28;20493;-84
2021/01/17 01:21:25;;;;;;;75.85;48.83;;;;;;;5.67;64.81;101455.47;4968709;28;20039;-84
2021/01/17 01:23:50;;;;;;;72.38;46.97;;;;;;;5.75;64.35;101457.41;4967376;28;20031;-84
2021/01/17 01:26:15;;;;;;;71.20;48.05;;;;;;;5.72;64.79;101461.25;4969266;28;20035;-84
2021/01/17 01:28:41;;;;;;;72.53;49.15;;;;;;;5.76;64.82;101455.56;4949504;28;20433;-83
2021/01/17 01:31:06;;;;;;;66.53;44.13;;;;;;;5.82;64.63;101454.94;4918224;28;20049;-84
2021/01/17 01:33:31;;;;;;;66.35;45.67;;;;;;;5.87;64.46;101445.41;4976194;28;20039;-84
2021/01/17 01:35:57;;;;;;;69.18;43.47;;;;;;;5.94;64.25;101442.13;4969595;28;20030;-83
2021/01/17 01:38:22;;;;;;;66.57;42.92;;;;;;;5.82;64.56;101438.75;4967231;28;20050;-83
2021/01/17 01:40:56;;;;;;;69.95;47.35;;;;;;;5.83;64.61;101451.28;4954498;28;20030;-83
2021/01/17 01:43:23;;;;;;;68.15;43.08;;;;;;;5.76;64.96;101450.16;4977997;28;20386;-84
2021/01/17 01:45:49;;;;;;;70.30;45.63;;;;;;;5.83;64.55;101446.72;4971374;28;20088;-84
2021/01/17 01:48:15;;;;;;;65.78;43.95;;;;;;;5.94;64.43;101458.31;4952466;28;20035;-83
2021/01/17 01:50:42;;;;;;;63.35;43.30;;;;;;;5.92;64.39;101451.19;4946472;28;20494;-83
2021/01/17 01:53:07;;;;;;;66.22;45.15;;;;;;;5.94;64.25;101436.72;4966785;28;20078;-83
2021/01/17 01:55:33;;;;;;;64.65;47.58;;;;;;;5.94;64.44;101444.81;4949283;28;20035;-82
2021/01/17 01:58:03;;;;;;;64.45;44.95;;;;;;;6.00;64.45;101452.34;4969292;28;20037;-83
2021/01/17 02:00:29;;;;;;;70.40;48.75;;;;;;;6.01;64.47;101443.22;4961081;28;20081;-82
2021/01/17 02:02:54;;;;;;;64.57;45.83;;;;;;;5.99;64.59;101446.06;4951924;28;20035;-82
2021/01/17 02:05:19;;;;;;;60.35;42.95;;;;;;;6.04;64.52;101448.31;4962808;28;20043;-82
2021/01/17 02:08:13;;;;;;;78.90;46.97;;;;;;;5.96;64.79;101445.50;4969322;28;20457;-82
2021/01/17 02:10:41;;;;;;;62.10;46.03;;;;;;;5.92;64.73;101447.66;4967989;28;20106;-83
2021/01/17 02:13:25;;;;;;;71.10;45.58;;;;;;;6.05;64.56;101448.16;4967870;28;20031;-82
2021/01/17 02:15:53;;;;;;;65.82;49.30;;;;;;;6.05;64.52;101442.75;4967299;28;20038;-82
2021/01/17 02:18:21;;;;;;;67.00;50.03;;;;;;;6.02;64.80;101451.16;4969521;28;20034;-82
2021/01/17 02:20:49;;;;;;;65.47;45.60;;;;;;;5.96;64.89;101440.09;4968413;28;20437;-82
2021/01/17 02:23:16;;;;;;;63.33;45.67;;;;;;;6.00;64.87;101439.69;4969311;28;20038;-81
2021/01/17 02:25:42;;;;;;;66.00;46.72;;;;;;;6.10;64.74;101442.31;4965657;28;20035;-81
2021/01/17 02:28:16;;;;;;;68.13;52.83;;;;;;;6.14;64.63;101442.88;4963697;28;20081;-81
2021/01/17 02:30:48;;;;;;;66.35;49.65;;;;;;;6.18;64.62;101437.03;4963335;28;20179;-81
2021/01/17 02:33:19;;;;;;;64.82;50.15;;;;;;;6.24;64.44;101438.22;4964930;28;20608;-82
2021/01/17 02:35:47;;;;;;;63.85;46.47;;;;;;;6.26;64.54;101433.56;4968903;28;20045;-82
2021/01/17 02:38:15;;;;;;;61.58;49.35;;;;;;;6.32;64.25;101437.47;4967554;28;20038;-83
2021/01/17 02:40:55;;;;;;;65.00;45.78;;;;;;;6.31;64.26;101438.50;4951484;28;20045;-83
2021/01/17 02:43:22;;;;;;;61.53;46.33;;;;;;;6.28;64.15;101434.25;4941343;28;20030;-83
2021/01/17 02:45:48;;;;;;;61.92;45.67;;;;;;;6.32;64.49;101443.75;4948560;28;20050;-83
2021/01/17 02:48:13;;;;;;;53.30;38.72;;;;;;;6.32;64.45;101441.03;4967411;28;20030;-82
2021/01/17 02:50:39;;;;;;;57.80;44.95;;;;;;;6.33;64.34;101434.63;4950046;28;20038;-83
2021/01/17 02:53:27;;;;;;;64.15;46.72;;;;;;;6.32;64.23;101441.03;4968267;28;20046;-82
2021/01/17 02:55:54;;;;;;;58.20;43.22;;;;;;;6.21;64.64;101444.81;4969760;28;20030;-82
2021/01/17 02:58:22;;;;;;;58.75;46.35;;;;;;;6.34;64.36;101441.72;4966150;28;20019;-82
2021/01/17 03:00:52;;;;;;;63.92;51.63;;;;;;;6.38;64.20;101439.56;4967120;28;20041;-81
2021/01/17 03:03:20;;;;;;;62.72;49.83;;;;;;;6.39;64.43;101436.69;4964758;28;20034;-82
2021/01/17 03:05:47;;;;;;;68.75;48.95;;;;;;;6.34;64.41;101447.13;4970174;28;20030;-81
2021/01/17 03:08:13;;;;;;;63.33;47.08;;;;;;;6.39;64.53;101436.69;4967660;28;20528;-81
2021/01/17 03:10:38;;;;;;;54.17;39.50;;;;;;;6.45;64.17;101441.47;4967472;28;20031;-81
2021/01/17 03:13:04;;;;;;;56.13;40.75;;;;;;;6.48;64.25;101444.91;4967649;28;20499;-81
2021/01/17 03:15:34;;;;;;;62.75;43.65;;;;;;;6.40;64.51;101440.28;4968721;28;20034;-81
2021/01/17 03:18:00;;;;;;;62.38;49.70;;;;;;;6.43;64.48;101448.91;4969307;28;20041;-81
2021/01/17 03:20:26;;;;;;;68.30;49.50;;;;;;;6.43;64.47;101440.81;4960420;28;20069;-82
2021/01/17 03:22:51;;;;;;;57.80;44.13;;;;;;;6.49;64.44;101447.44;4950178;28;20030;-82
2021/01/17 03:25:17;;;;;;;65.63;56.30;;;;;;;6.50;64.45;101437.47;4964010;28;20035;-82
2021/01/17 03:27:42;;;;;;;64.38;48.85;;;;;;;6.54;64.22;101433.47;4950678;28;20094;-82
2021/01/17 03:30:08;;;;;;;57.03;41.65;;;;;;;6.61;64.18;101439.94;4965478;28;20723;-82
2021/01/17 03:32:34;;;;;;;59.47;44.55;;;;;;;6.60;64.23;101436.41;4944938;28;20046;-82
2021/01/17 03:34:59;;;;;;;58.25;47.10;;;;;;;6.62;63.99;101442.47;4948831;28;20065;-82
2021/01/17 03:37:24;;;;;;;56.40;43.33;;;;;;;6.67;64.18;101442.00;4965836;28;20179;-82
2021/01/17 03:39:50;;;;;;;61.92;55.05;;;;;;;6.67;64.19;101439.31;4966584;28;20050;-82
2021/01/17 03:42:15;;;;;;;60.20;48.55;;;;;;;6.67;64.10;101427.66;4964269;28;20043;-82
2021/01/17 03:44:41;;;;;;;62.95;53.30;;;;;;;6.69;64.21;101440.03;4968540;28;20037;-83
2021/01/17 03:47:08;;;;;;;61.50;50.78;;;;;;;6.71;64.01;101429.06;4949135;28;20038;-83
2021/01/17 03:49:34;;;;;;;64.72;51.92;;;;;;;6.71;64.07;101434.47;4947017;28;20045;-84
2021/01/17 03:51:59;;;;;;;58.53;47.38;;;;;;;6.70;64.00;101424.66;4944660;28;20034;-83
2021/01/17 03:54:25;;;;;;;58.17;42.08;;;;;;;6.72;64.08;101439.72;4965427;28;20464;-83
2021/01/17 03:56:50;;;;;;;57.22;45.60;;;;;;;6.74;63.96;101434.16;4948165;28;20046;-84
2021/01/17 03:59:16;;;;;;;54.88;46.75;;;;;;;6.73;64.01;101435.97;4947479;28;20081;-84
2021/01/17 04:01:45;;;;;;;57.88;50.90;;;;;;;6.68;63.96;101430.22;4945190;28;20030;-84
2021/01/17 04:04:10;;;;;;;59.30;49.03;;;;;;;6.66;64.07;101443.03;4962582;28;20163;-83
2021/01/17 04:06:37;;;;;;;56.15;44.90;;;;;;;6.62;64.00;101441.63;4962522;28;20582;-84
2021/01/17 04:09:04;;;;;;;55.72;41.53;;;;;;;6.58;64.00;101435.72;4965582;28;20054;-84
2021/01/17 04:11:29;;;;;;;60.83;45.95;;;;;;;6.54;64.14;101450.53;4966849;28;20560;-85
2021/01/17 04:13:54;;;;;;;54.47;43.20;;;;;;;6.55;64.15;101443.25;4960467;28;20035;-84
2021/01/17 04:16:20;;;;;;;51.45;32.42;;;;;;;6.59;65.20;101441.94;4965449;28;20105;-84
2021/01/17 04:18:45;;;;;;;46.05;31.15;;;;;;;6.70;66.13;101441.69;4946322;28;20562;-84
2021/01/17 04:21:11;;;;;;;41.72;25.17;;;;;;;6.94;66.35;101440.22;4965955;28;20548;-85
2021/01/17 04:23:36;;;;;;;42.15;17.92;;;;;;;7.18;67.51;101434.13;4962826;28;20030;-84
2021/01/17 04:26:01;;;;;;;37.35;18.95;;;;;;;7.53;67.46;101441.25;4945575;28;20477;-85
2021/01/17 04:28:27;;;;;;;42.72;18.13;;;;;;;7.84;68.23;101446.13;4966769;28;20500;-83
2021/01/17 04:30:53;;;;;;;44.50;14.15;;;;;;;8.11;67.64;101446.91;4968569;28;20042;-83
2021/01/17 04:33:19;;;;;;;35.92;18.92;;;;;;;8.22;67.79;101441.16;4965348;28;20034;-85
2021/01/17 04:35:48;;;;;;;42.75;13.65;;;;;;;8.40;68.13;101438.31;4965263;28;20036;-84
2021/01/17 04:38:13;;;;;;;48.28;17.42;;;;;;;8.48;68.00;101445.66;4966381;28;20276;-84
2021/01/17 04:40:39;;;;;;;30.00;10.20;;;;;;;8.66;67.92;101447.34;4967150;28;20470;-86
2021/01/17 04:43:15;;;;;;;47.08;11.25;;;;;;;8.87;67.65;101441.44;4965581;28;20525;-83
2021/01/17 04:45:41;;;;;;;37.00;11.82;;;;;;;8.89;67.69;101437.50;4963595;28;20030;-85
2021/01/17 04:48:07;;;;;;;47.63;15.40;;;;;;;8.96;67.54;101446.66;4967092;28;20034;-87
2021/01/17 04:50:33;;;;;;;26.90;10.80;;;;;;;9.10;66.97;101438.84;4966438;28;20046;-87
2021/01/17 04:53:00;;;;;;;37.83;9.27;;;;;;;9.20;66.83;101450.34;4968794;28;20035;-85
2021/01/17 04:55:26;;;;;;;39.92;13.60;;;;;;;9.20;66.85;101442.22;4964452;28;20082;-85
2021/01/17 04:58:14;;;;;;;40.30;12.90;;;;;;;9.25;66.97;101444.41;4965038;28;20440;-86
2021/01/17 05:00:41;;;;;;;48.65;12.20;;;;;;;9.25;67.42;101445.28;4966210;28;20081;-87
2021/01/17 05:03:31;;;;;;;36.80;8.90;;;;;;;9.26;66.83;101438.81;4965902;28;20035;-87
2021/01/17 05:06:17;;;;;;;39.58;9.75;;;;;;;9.37;66.41;101455.75;4951132;28;20159;-86
2021/01/17 05:08:46;;;;;;;30.17;9.30;;;;;;;9.30;67.18;101445.59;4965982;28;20053;-87
2021/01/17 05:11:40;;;;;;;45.40;10.13;;;;;;;9.31;67.40;101447.28;4963614;28;20042;-88
2021/01/17 05:14:14;;;;;;;36.88;10.65;;;;;;;9.32;67.16;101454.41;4962210;28;20109;-85
2021/01/17 05:16:41;;;;;;;38.13;13.25;;;;;;;9.40;66.96;101447.25;4966826;28;21556;-85
2021/01/17 05:19:12;;;;;;;37.25;11.45;;;;;;;9.48;66.82;101450.81;4949097;28;20122;-87
2021/01/17 05:21:39;;;;;;;39.67;10.35;;;;;;;9.44;66.99;101443.19;4950199;28;20397;-87
2021/01/17 05:24:11;;;;;;;37.92;10.80;;;;;;;9.46;66.94;101444.69;4964243;28;20064;-87
2021/01/17 05:26:38;;;;;;;;;;;;;;;9.55;66.54;101450.97;4951296;28;20053;-87
2021/01/17 05:29:04;;;;;;;34.83;8.88;;;;;;;9.39;67.26;101454.56;4967021;28;19928;-86
2021/01/17 05:31:30;;;;;;;38.47;11.80;;;;;;;9.50;67.07;101453.34;4969952;28;20475;-88
2021/01/17 05:33:57;;;;;;;34.47;8.20;;;;;;;9.63;66.76;101466.38;4948932;28;20050;-88
2021/01/17 05:36:23;;;;;;;34.03;8.85;;;;;;;9.66;66.54;101460.59;4952017;28;20038;-87
2021/01/17 05:38:59;;;;;;;37.88;8.82;;;;;;;9.66;66.31;101466.03;4968224;28;20054;-88
2021/01/17 05:41:25;;;;;;;41.55;8.90;;;;;;;9.63;66.60;101466.38;4970207;28;20085;-87
2021/01/17 05:43:50;;;;;;;38.85;8.95;;;;;;;9.55;66.76;101472.69;4957345;28;20397;-88
2021/01/17 05:46:16;;;;;;;42.67;8.55;;;;;;;9.67;66.68;101470.44;4968034;28;20038;-87
2021/01/17 05:48:41;;;;;;;46.65;10.75;;;;;;;9.68;66.63;101475.69;4947137;28;20046;-88
2021/01/17 05:51:07;;;;;;;43.08;10.80;;;;;;;9.75;66.32;101473.13;4964345;28;20433;-88
2021/01/17 05:53:33;;;;;;;32.63;8.48;;;;;;;9.76;66.33;101476.69;4968532;28;20035;-86
2021/01/17 05:56:00;;;;;;;40.65;9.25;;;;;;;9.84;66.08;101480.22;4950977;28;20034;-88
2021/01/17 05:58:32;;;;;;;39.22;8.23;;;;;;;9.85;65.81;101473.78;4970454;28;20049;-88
2021/01/17 06:01:14;;;;;;;28.80;7.43;;;;;;;9.74;65.86;101468.72;4950932;28;20043;-88
2021/01/17 06:03:51;;;;;;;33.40;9.27;;;;;;;9.90;65.48;101478.69;4967799;28;20313;-90
2021/01/17 06:06:30;;;;;;;35.67;10.45;;;;;;;9.83;66.27;101496.69;4969030;28;20022;-87
2021/01/17 06:08:59;;;;;;;37.85;10.05;;;;;;;9.86;65.75;101483.59;4949303;28;20065;-85
2021/01/17 06:11:26;;;;;;;40.33;9.27;;;;;;;9.85;65.98;101489.22;4962310;28;20034;-89
2021/01/17 06:13:59;;;;;;;42.97;10.40;;;;;;;9.89;65.54;101498.72;4932737;28;20033;-90
2021/01/17 06:16:32;;;;;;;40.22;8.95;;;;;;;9.98;65.94;101507.69;4952677;28;20358;-89
2021/01/17 06:19:02;;;;;;;44.28;10.30;;;;;;;9.83;66.33;101508.41;4968542;28;20489;-88
2021/01/17 06:21:30;;;;;;;34.92;9.30;;;;;;;9.95;65.62;101510.75;4948287;28;20118;-89
2021/01/17 06:24:09;;;;;;;40.47;11.25;;;;;;;10.02;65.34;101507.16;4950552;28;20046;-88
2021/01/17 06:26:36;;;;;;;36.97;8.85;;;;;;;9.94;65.60;101501.72;4968952;28;20032;-90
2021/01/17 06:29:05;;;;;;;46.95;11.48;;;;;;;10.00;65.33;101511.06;4969300;28;20065;-88
2021/01/17 06:31:31;;;;;;;40.25;11.38;;;;;;;10.09;65.17;101514.59;4964957;28;20542;-89
2021/01/17 06:34:14;;;;;;;27.67;8.15;;;;;;;10.03;65.20;101519.69;4969490;28;20039;-89
2021/01/17 06:36:46;;;;;;;35.72;8.90;;;;;;;10.06;65.24;101523.13;4950337;28;20557;-88
2021/01/17 06:39:22;;;;;;;41.60;8.73;;;;;;;10.06;64.97;101521.22;4951977;28;20065;-89
2021/01/17 06:41:54;;;;;;;36.85;8.45;;;;;;;10.08;65.04;101534.66;4956346;28;20038;-90
2021/01/17 06:44:27;;;;;;;36.78;8.93;;;;;;;10.04;64.85;101535.00;4957209;28;20054;-89
2021/01/17 06:46:53;;;;;;;34.03;8.93;;;;;;;9.98;64.98;101532.97;4954911;28;20031;-88
2021/01/17 06:49:36;;;;;;;38.03;8.70;;;;;;;10.06;64.95;101533.97;4967517;28;20050;-89
2021/01/17 06:52:05;;;;;;;38.72;9.48;;;;;;;10.01;64.94;101548.94;4965600;28;20035;-88
2021/01/17 06:54:33;;;;;;;39.17;9.55;;;;;;;10.03;65.15;101546.03;4966131;28;20781;-88
2021/01/17 06:56:59;;;;;;;38.80;8.60;;;;;;;9.93;65.34;101548.97;4967776;28;20066;-88
2021/01/17 06:59:28;;;;;;;32.70;8.02;;;;;;;9.98;64.92;101545.72;4947981;28;20541;-90
2021/01/17 07:02:21;;;;;;;35.88;10.55;;;;;;;9.96;64.75;101554.06;4967169;28;20490;-90
2021/01/17 07:04:53;;;;;;;40.15;9.90;;;;;;;9.96;65.11;101558.63;4966167;28;20433;-90
2021/01/17 07:07:40;;;;;;;41.53;11.27;;;;;;;9.91;64.97;101561.88;4969635;28;20065;-90
2021/01/17 07:10:10;;;;;;;36.47;11.98;;;;;;;9.80;65.33;101560.38;4966068;28;20453;-90
2021/01/17 07:12:57;;;;;;;35.88;8.75;;;;;;;9.83;65.31;101561.91;4950568;28;20681;-88
2021/01/17 07:15:27;;;;;;;30.70;9.57;;;;;;;9.84;65.15;101566.31;4948202;28;20561;-90
2021/01/17 07:18:01;;;;;;;46.43;14.57;;;;;;;9.81;64.90;101572.09;4969096;28;20042;-88
2021/01/17 07:20:32;;;;;;;47.53;9.73;;;;;;;9.70;65.36;101578.75;4966188;28;20034;-89
2021/01/17 07:22:58;;;;;;;31.08;8.82;;;;;;;9.72;64.93;101568.53;4968077;28;20028;-90
2021/01/17 07:25:25;;;;;;;36.03;9.35;;;;;;;9.76;65.16;101569.91;4948916;28;20097;-88
2021/01/17 07:28:05;;;;;;;38.58;9.00;;;;;;;9.77;65.49;101584.31;4964372;28;20521;-89
2021/01/17 07:30:39;;;;;;;42.53;7.55;;;;;;;9.78;65.28;101583.31;4948315;28;20097;-88
2021/01/17 07:33:07;;;;;;;41.00;9.90;;;;;;;9.67;65.28;101587.22;4966053;28;20130;-90
2021/01/17 07:35:40;;;;;;;33.05;9.20;;;;;;;9.71;65.22;101587.72;4962470;28;20038;-88
2021/01/17 07:38:10;;;;;;;38.42;9.93;;;;;;;9.70;65.09;101596.88;4967458;28;20401;-91
2021/01/17 07:40:50;;;;;;;38.55;9.85;;;;;;;9.71;65.11;101609.44;4952676;28;20054;-89
2021/01/17 07:43:17;;;;;;;46.45;11.20;;;;;;;9.67;65.23;101615.22;4966574;28;20101;-89
2021/01/17 07:45:43;;;;;;;44.97;10.77;;;;;;;9.65;65.54;101608.25;4968249;28;20386;-87
2021/01/17 07:48:11;;;;;;;32.88;10.55;;;;;;;9.55;65.75;101616.59;4965859;28;20064;-88
2021/01/17 07:50:38;;;;;;;39.22;9.20;;;;;;;9.67;65.60;101619.81;4971264;28;20029;-90
2021/01/17 07:53:09;;;;;;;49.35;11.55;;;;;;;9.53;66.19;101629.50;4967283;28;20109;-89
2021/01/17 07:55:35;;;;;;;33.65;9.27;;;;;;;9.70;65.32;101630.34;4969282;28;20030;-89
2021/01/17 07:58:03;;;;;;;40.53;9.93;;;;;;;9.66;65.91;101628.97;4948901;28;20062;-90
2021/01/17 08:00:28;;;;;;;40.72;8.02;;;;;;;9.78;65.08;101626.78;4948691;28;20062;-90
2021/01/17 08:02:56;;;;;;;23.73;9.23;;;;;;;9.84;65.23;101640.50;4960995;28;20043;-89
2021/01/17 08:05:47;;;;;;;29.92;9.98;;;;;;;9.89;65.25;101640.00;4966434;28;20019;-89
2021/01/17 08:08:34;;;;;;;26.58;7.38;;;;;;;9.86;65.05;101653.91;4949655;28;20035;-90
2021/01/17 08:11:00;;;;;;;22.67;10.00;;;;;;;9.84;65.11;101661.41;4967767;28;20034;-89
2021/01/17 08:13:32;;;;;;;17.40;7.22;;;;;;;9.90;64.44;101668.88;4948720;28;20457;-88
2021/01/17 08:16:11;;;;;;;18.83;8.65;;;;;;;9.91;64.45;101661.56;4944712;28;20489;-89
2021/01/17 08:18:40;;;;;;;22.27;7.45;;;;;;;9.87;64.33;101666.50;4967742;28;20485;-89
2021/01/17 08:21:21;;;;;;;21.67;6.28;;;;;;;9.96;64.04;101668.19;4948016;28;20030;-90
2021/01/17 08:24:11;;;;;;;16.58;7.18;;;;;;;9.99;64.19;101673.28;4962560;28;20046;-88
2021/01/17 08:26:58;;;;;;;27.55;8.02;;;;;;;10.04;64.06;101676.31;4942573;28;20042;-89
2021/01/17 08:29:25;;;;;;;16.95;6.30;;;;;;;10.03;64.16;101687.34;4948350;28;20057;-87
2021/01/17 08:31:50;;;;;;;29.15;6.70;;;;;;;10.05;64.17;101688.03;4968260;28;20049;-89
2021/01/17 08:34:23;;;;;;;25.17;6.68;;;;;;;9.97;64.06;101686.16;4964213;28;20035;-90
2021/01/17 08:36:49;;;;;;;29.90;6.88;;;;;;;10.16;63.98;101694.97;4964723;28;20031;-91
2021/01/17 08:39:47;;;;;;;25.40;6.82;;;;;;;10.23;63.43;101693.25;4950574;28;20046;-89
2021/01/17 08:42:49;;;;;;;26.42;7.47;;;;;;;10.26;63.67;101692.09;4963667;28;20413;-89
2021/01/17 08:45:21;;;;;;;30.73;8.48;;;;;;;10.31;63.70;101697.84;4956365;28;20089;-91
2021/01/17 08:47:48;;;;;;;29.80;6.55;;;;;;;10.33;63.65;101710.28;4968223;28;20041;-90
2021/01/17 08:50:36;;;;;;;24.00;7.80;;;;;;;10.43;63.45;101701.06;4948321;28;20085;-89
2021/01/17 08:53:15;;;;;;;31.33;8.75;;;;;;;10.34;63.55;101709.25;4948072;28;20073;-90
2021/01/17 08:55:42;;;;;;;30.88;10.05;;;;;;;10.52;63.71;101713.63;4950135;28;20100;-88
2021/01/17 08:58:08;;;;;;;33.08;8.65;;;;;;;10.57;63.32;101708.50;4966932;28;20058;-89
2021/01/17 09:00:52;;;;;;;27.85;7.38;;;;;;;10.62;63.72;101718.84;4937173;28;20283;-88
2021/01/17 09:03:31;;;;;;;33.40;8.88;;;;;;;10.73;64.03;101723.91;4961970;28;20494;-89
2021/01/17 09:05:58;;;;;;;36.42;8.73;;;;;;;10.72;63.79;101716.75;4967238;28;20165;-90
2021/01/17 09:08:24;;;;;;;25.27;7.70;;;;;;;10.64;64.31;101728.53;4952820;28;20113;-90
2021/01/17 09:10:50;;;;;;;35.97;7.88;;;;;;;10.81;63.74;101736.63;4969331;28;20550;-90
2021/01/17 09:13:19;;;;;;;35.92;10.63;;;;;;;10.75;63.94;101739.06;4959074;28;20027;-91
2021/01/17 09:16:09;;;;;;;36.30;8.88;;;;;;;10.90;63.54;101741.88;4951947;28;20030;-88
2021/01/17 09:18:37;;;;;;;32.15;7.10;;;;;;;10.79;63.78;101750.41;4964255;28;20093;-88
2021/01/17 09:21:05;;;;;;;25.38;8.02;;;;;;;10.68;63.70;101748.91;4948601;28;20030;-87
2021/01/17 09:23:37;;;;;;;27.10;8.40;;;;;;;10.72;63.60;101752.13;4950912;28;20038;-84
2021/01/17 09:26:02;;;;;;;30.90;10.10;;;;;;;10.74;63.18;101763.72;4962371;28;20422;-88
2021/01/17 09:28:29;;;;;;;26.25;5.97;;;;;;;10.65;63.58;101772.91;4948997;28;20038;-88
2021/01/17 09:30:57;;;;;;;21.20;5.95;;;;;;;10.77;63.19;101773.38;4951983;28;20042;-85
2021/01/17 09:33:23;;;;;;;24.83;5.47;;;;;;;10.69;63.54;101771.53;4968090;28;20039;-88
2021/01/17 09:35:50;;;;;;;32.20;8.80;;;;;;;10.62;63.71;101771.38;4947544;28;20034;-90
2021/01/17 09:38:21;;;;;;;21.55;7.05;;;;;;;10.86;62.92;101778.63;4970277;28;20068;-88
2021/01/17 09:40:56;;;;;;;26.00;4.80;;;;;;;10.86;62.88;101789.53;4968323;28;20030;-87
2021/01/17 09:43:22;;;;;;;26.33;6.00;;;;;;;11.02;62.63;101791.34;4966116;28;20034;-88
2021/01/17 09:45:53;;;;;;;20.40;5.43;;;;;;;10.91;63.03;101797.16;4937215;28;20015;-86
2021/01/17 09:48:24;;;;;;;25.23;8.70;;;;;;;11.24;61.98;101799.75;4967442;28;20085;-89
2021/01/17 09:50:53;;;;;;;23.02;5.50;;;;;;;11.05;61.85;101788.25;4968028;28;20045;-87
2021/01/17 09:53:19;;;;;;;15.88;6.10;;;;;;;11.09;61.50;101795.06;4949383;28;20027;-89
2021/01/17 09:55:47;;;;;;;26.45;6.43;;;;;;;11.06;61.79;101825.34;4966047;28;20035;-88
2021/01/17 09:58:15;;;;;;;18.05;5.07;;;;;;;11.06;61.62;101811.75;4949336;28;20034;-85
2021/01/17 10:00:43;;;;;;;18.30;4.63;;;;;;;11.14;61.35;101823.59;4936939;28;20367;-89
2021/01/17 10:03:13;;;;;;;24.60;8.15;;;;;;;11.25;61.86;101824.06;4933742;28;20033;-88
2021/01/17 10:05:41;;;;;;;14.13;5.07;;;;;;;12.00;61.77;101830.84;4966175;28;20526;-88
2021/01/17 10:08:07;;;;;;;20.58;7.32;;;;;;;12.62;58.84;101831.69;4966667;28;20082;-86
2021/01/17 10:10:33;;;;;;;25.30;5.70;;;;;;;12.59;57.62;101821.16;4962683;28;20039;-89
2021/01/17 10:12:59;;;;;;;27.02;6.97;;;;;;;12.45;58.27;101844.66;4929811;28;20430;-88
2021/01/17 10:15:25;;;;;;;18.70;6.43;;;;;;;12.22;59.03;101841.06;4936769;28;20170;-88
2021/01/17 10:17:52;;;;;;;31.88;6.45;;;;;;;12.18;59.13;101840.59;4951013;28;20046;-89
2021/01/17 10:20:31;;;;;;;27.05;7.72;;;;;;;11.72;60.60;101849.53;4951271;28;20497;-91
2021/01/17 10:23:05;;;;;;;24.95;7.65;;;;;;;12.56;60.11;101856.13;4969000;28;20540;-88
2021/01/17 10:25:32;;;;;;;29.85;7.22;;;;;;;13.41;57.53;101852.19;4964705;28;20469;-88
2021/01/17 10:28:05;;;;;;;32.50;7.60;;;;;;;13.77;55.60;101857.66;4948575;28;20035;-89
2021/01/17 10:30:32;;;;;;;19.60;4.95;;;;;;;14.43;53.16;101859.38;4946335;28;20065;-89
2021/01/17 10:33:10;;;;;;;26.38;6.15;;;;;;;14.06;53.54;101858.63;4931742;28;20042;-88
2021/01/17 10:35:38;;;;;;;29.15;5.22;;;;;;;13.65;54.95;101859.19;4961695;28;20031;-89
2021/01/17 10:38:05;;;;;;;28.70;5.75;;;;;;;13.11;56.17;101863.06;4970389;28;20113;-88
2021/01/17 10:40:32;;;;;;;32.35;6.75;;;;;;;13.05;56.82;101875.63;4944722;28;20133;-89
2021/01/17 10:43:00;;;;;;;35.25;7.53;;;;;;;12.58;58.70;101875.91;4962116;28;20031;-87
2021/01/17 10:45:27;;;;;;;31.10;7.57;;;;;;;12.27;58.91;101876.84;4961011;28;20059;-88
2021/01/17 10:48:03;;;;;;;28.08;7.95;;;;;;;12.45;58.87;101877.38;4960487;28;20038;-89
2021/01/17 10:50:33;;;;;;;29.38;6.82;;;;;;;12.62;58.80;101880.81;4961137;28;20054;-87
2021/01/17 10:53:05;;;;;;;27.77;7.00;;;;;;;12.58;58.55;101881.38;4959837;28;20035;-89
2021/01/17 10:55:35;;;;;;;30.67;5.95;;;;;;;12.90;57.86;101880.22;4960757;28;20366;-90
2021/01/17 10:58:03;;;;;;;24.27;5.35;;;;;;;12.80;57.95;101879.63;4954586;28;20486;-88
2021/01/17 11:00:29;;;;;;;23.27;7.53;;;;;;;12.89;57.19;101883.97;4958406;28;20070;-88
2021/01/17 11:03:06;;;;;;;24.52;5.45;;;;;;;13.04;57.44;101881.25;4939982;28;20122;-88
2021/01/17 11:05:33;;;;;;;28.58;6.28;;;;;;;13.30;57.12;101879.94;4958061;28;20090;-88
2021/01/17 11:07:59;;;;;;;34.03;5.65;;;;;;;13.33;57.23;101876.81;4959125;28;20173;-87
2021/01/17 11:10:25;;;;;;;27.85;6.68;;;;;;;13.56;55.97;101877.59;4956351;28;22119;-88
2021/01/17 11:12:51;;;;;;;32.35;6.53;;;;;;;13.17;56.53;101886.91;4943287;28;20043;-88
2021/01/17 11:15:18;;;;;;;25.77;5.97;;;;;;;13.72;56.08;101883.91;4959673;28;20035;-89
2021/01/17 11:17:54;;;;;;;26.67;7.28;;;;;;;13.75;55.48;101888.97;4949440;28;20106;-87
2021/01/17 11:20:38;;;;;;;32.15;5.93;;;;;;;13.48;55.67;101885.06;4951373;28;20030;-87
2021/01/17 11:23:05;;;;;;;31.42;6.55;;;;;;;13.49;55.77;101890.31;4970119;28;20035;-87
2021/01/17 11:25:32;;;;;;;37.03;6.65;;;;;;;13.42;56.34;101894.84;4925973;28;20039;-87
2021/01/17 11:28:02;;;;;;;33.60;6.68;;;;;;;13.14;56.58;101872.78;4968517;28;20026;-85
2021/01/17 11:30:29;;;;;;;32.80;7.03;;;;;;;12.95;56.61;101893.31;4973077;28;20039;-87